Elizabethtown, Pennsylvania
Current Conditions -  °F | °C
As of 8:00 AM on Tuesday 21 Oct 2014 (Local Time) from KMDT Reporting Station
Haze Haze  
Wind Chill: 50°   Ceiling: 500
Heat Index: 50°   Visibility: 2.5mi
Dew Point: 49°   Wind: 3mph
Humidity: 96%   Direction: 80°E
Pressure: 29.86"   Gusts: NA
Location:  40.15°N, 76.61°W
Report Text: KMDT 211200Z 08003KT 2 1/2SM BR BKN005 BKN085 10/09 A2986 RMK AO2 T01000094
Loading
Personal Weather Stations






























Interactive Weather Map
Tropical Storm Tracking
New forecast layout! Learn more

10-Day Weather Forecast

Advertisements
Track Severe Weather on mobile